createdAt,value
2022-10-23T00:01:43.503Z,9.90
2022-10-23T00:04:12.672Z,10.05
2022-10-23T00:06:39.382Z,9.88
2022-10-23T00:09:06.943Z,9.93
2022-10-23T00:11:34.245Z,9.85
2022-10-23T00:14:01.899Z,10.25
2022-10-23T00:16:28.780Z,10.18
2022-10-23T00:18:55.091Z,8.60
2022-10-23T00:21:21.751Z,8.93
2022-10-23T00:26:31.954Z,6.90
2022-10-23T00:28:58.402Z,7.47
2022-10-23T00:31:25.035Z,8.10
2022-10-23T00:36:36.240Z,8.30
2022-10-23T00:39:02.992Z,8.50
2022-10-23T00:41:29.594Z,9.10
2022-10-23T00:44:06.665Z,9.73
2022-10-23T00:46:33.736Z,8.75
2022-10-23T00:49:01.038Z,9.68
2022-10-23T00:51:29.379Z,9.27
2022-10-23T00:54:29.660Z,9.40
2022-10-23T00:56:58.263Z,9.02
2022-10-23T00:59:24.891Z,9.68
2022-10-23T01:01:51.536Z,9.60
2022-10-23T01:04:18.714Z,8.60
2022-10-23T01:07:03.324Z,9.07
2022-10-23T01:09:39.532Z,9.15
2022-10-23T01:12:42.239Z,9.35
2022-10-23T01:15:13.718Z,9.45
2022-10-23T01:17:46.386Z,8.55
2022-10-23T01:20:19.737Z,8.52
2022-10-23T01:23:05.656Z,7.82
2022-10-23T01:25:44.373Z,9.55
2022-10-23T01:28:30.846Z,8.93
2022-10-23T01:30:59.511Z,9.15
2022-10-23T01:33:33.884Z,9.40
2022-10-23T01:36:01.933Z,8.77
2022-10-23T01:38:35.668Z,9.07
2022-10-23T01:41:29.677Z,8.45
2022-10-23T01:44:02.480Z,9.27
2022-10-23T01:46:51.644Z,9.13
2022-10-23T01:49:19.499Z,9.15
2022-10-23T01:51:54.624Z,9.43
2022-10-23T01:54:22.308Z,9.75
2022-10-23T01:56:50.034Z,8.73
2022-10-23T01:59:22.480Z,9.45
2022-10-23T02:04:45.933Z,8.90
2022-10-23T02:07:12.374Z,9.25
2022-10-23T02:09:38.770Z,9.85
2022-10-23T02:12:22.867Z,10.07
2022-10-23T02:14:53.616Z,10.52
2022-10-23T02:17:26.079Z,9.65
2022-10-23T02:19:58.314Z,9.82
2022-10-23T02:22:37.932Z,9.10
2022-10-23T02:25:14.377Z,10.18
2022-10-23T02:28:02.258Z,10.13
2022-10-23T02:30:37.692Z,10.05
2022-10-23T02:33:10.584Z,10.75
2022-10-23T02:35:37.268Z,9.82
2022-10-23T02:38:37.370Z,9.85
2022-10-23T02:41:10.131Z,9.95
2022-10-23T02:44:20.619Z,8.93
2022-10-23T02:46:50.763Z,11.02
2022-10-23T02:49:26.155Z,9.40
2022-10-23T02:51:52.969Z,8.88
2022-10-23T02:54:25.391Z,9.75
2022-10-23T02:57:02.986Z,9.40
2022-10-23T02:59:45.430Z,9.15
2022-10-23T03:02:12.760Z,9.50
2022-10-23T03:04:40.497Z,9.20
2022-10-23T03:07:18.015Z,9.38
2022-10-23T03:09:44.404Z,9.15
2022-10-23T03:12:10.763Z,9.38
2022-10-23T03:14:37.218Z,9.45
2022-10-23T03:17:04.105Z,9.40
2022-10-23T03:19:30.431Z,9.93
2022-10-23T03:21:58.281Z,10.13
2022-10-23T03:24:34.389Z,9.48
2022-10-23T03:27:00.740Z,9.43
2022-10-23T03:29:31.579Z,9.25
2022-10-23T03:31:57.944Z,10.00
2022-10-23T03:34:24.348Z,8.93
2022-10-23T03:37:11.717Z,9.32
2022-10-23T03:39:56.748Z,9.43
2022-10-23T03:42:23.075Z,9.13
2022-10-23T03:44:49.751Z,10.20
2022-10-23T03:47:18.125Z,10.13
2022-10-23T03:49:44.464Z,9.98
2022-10-23T03:52:10.859Z,10.15
2022-10-23T03:57:40.382Z,9.70
2022-10-23T04:00:07.083Z,9.38
2022-10-23T04:03:10.861Z,9.88
2022-10-23T04:05:37.764Z,9.73
2022-10-23T04:08:04.135Z,9.07
2022-10-23T04:10:32.365Z,9.23
2022-10-23T04:15:39.094Z,8.52
2022-10-23T04:18:05.613Z,9.25
2022-10-23T04:20:32.439Z,9.25
2022-10-23T04:23:01.771Z,9.57
2022-10-23T04:25:28.543Z,8.50
2022-10-23T04:27:54.915Z,8.65
2022-10-23T04:30:21.366Z,8.70
2022-10-23T04:32:50.316Z,8.80
2022-10-23T04:35:16.702Z,8.43
2022-10-23T04:37:43.330Z,9.43
2022-10-23T04:40:09.946Z,9.25
2022-10-23T04:42:37.453Z,9.10
2022-10-23T04:45:04.408Z,9.57
2022-10-23T04:47:31.025Z,8.35
2022-10-23T04:52:58.720Z,9.05
2022-10-23T04:55:50.696Z,8.82
2022-10-23T04:58:23.466Z,9.18
2022-10-23T05:00:50.751Z,8.90
2022-10-23T05:03:23.618Z,8.27
2022-10-23T05:05:52.501Z,8.75
2022-10-23T05:08:29.164Z,9.60
2022-10-23T05:11:22.865Z,9.38
2022-10-23T05:13:50.894Z,9.25
2022-10-23T05:16:37.129Z,9.18
2022-10-23T05:19:03.898Z,9.05
2022-10-23T05:21:31.764Z,9.15
2022-10-23T05:26:26.459Z,8.15
2022-10-23T05:28:53.028Z,8.13
2022-10-23T05:31:20.039Z,8.38
2022-10-23T05:33:50.018Z,7.90
2022-10-23T05:36:19.162Z,8.05
2022-10-23T05:38:46.499Z,7.30
2022-10-23T05:41:34.952Z,7.55
2022-10-23T05:44:02.056Z,6.85
2022-10-23T05:49:49.523Z,6.65
2022-10-23T05:52:27.649Z,7.15
2022-10-23T05:55:26.524Z,6.95
2022-10-23T05:58:13.104Z,6.47
2022-10-23T06:00:59.745Z,6.47
2022-10-23T06:03:55.467Z,6.45
2022-10-23T06:06:29.066Z,6.85
2022-10-23T06:08:55.593Z,6.95
2022-10-23T06:11:22.230Z,6.30
2022-10-23T06:14:01.193Z,6.10
2022-10-23T06:16:27.805Z,6.55
2022-10-23T06:21:39.303Z,6.40
2022-10-23T06:24:06.930Z,6.70
2022-10-23T06:26:48.176Z,6.45
2022-10-23T06:29:19.459Z,6.85
2022-10-23T06:31:46.638Z,7.25
2022-10-23T06:34:13.276Z,6.85
2022-10-23T06:36:40.420Z,6.63
2022-10-23T06:39:22.108Z,6.63
2022-10-23T06:44:57.726Z,6.78
2022-10-23T06:47:53.583Z,6.60
2022-10-23T06:50:38.931Z,6.57
2022-10-23T06:53:14.931Z,6.38
2022-10-23T06:55:50.043Z,6.82
2022-10-23T06:58:19.438Z,6.60
2022-10-23T07:03:29.517Z,7.13
2022-10-23T07:06:14.494Z,6.70
2022-10-23T07:08:41.872Z,7.68
2022-10-23T07:12:02.363Z,7.15
2022-10-23T07:14:38.948Z,6.78
2022-10-23T07:17:24.003Z,6.53
2022-10-23T07:19:50.509Z,8.13
2022-10-23T07:22:16.839Z,7.68
2022-10-23T07:27:49.650Z,7.05
2022-10-23T07:30:16.696Z,6.65
2022-10-23T07:32:48.194Z,6.88
2022-10-23T07:35:37.004Z,6.72
2022-10-23T07:38:09.478Z,7.65
2022-10-23T07:40:40.518Z,6.85
2022-10-23T07:43:09.384Z,7.32
2022-10-23T07:45:35.957Z,7.28
2022-10-23T07:48:09.551Z,7.28
2022-10-23T07:51:08.357Z,7.28
2022-10-23T07:53:39.293Z,7.10
2022-10-23T07:56:18.062Z,6.85
2022-10-23T08:02:12.855Z,6.47
2022-10-23T08:04:58.031Z,6.38
2022-10-23T08:07:58.585Z,6.53
2022-10-23T08:10:24.971Z,6.40
2022-10-23T08:12:52.113Z,6.30
2022-10-23T08:15:24.364Z,6.00
2022-10-23T08:18:15.199Z,6.10
2022-10-23T08:20:46.045Z,5.78
2022-10-23T08:23:31.060Z,5.68
2022-10-23T08:26:00.137Z,6.32
2022-10-23T08:28:29.448Z,5.95
2022-10-23T08:30:58.484Z,5.60
2022-10-23T08:33:25.724Z,5.47
2022-10-23T08:35:52.887Z,5.57
2022-10-23T08:38:46.567Z,5.53
2022-10-23T08:41:32.000Z,5.70
2022-10-23T08:44:19.052Z,5.38
2022-10-23T08:53:18.692Z,5.53
2022-10-23T08:56:06.661Z,5.63
2022-10-23T08:58:40.273Z,5.60
2022-10-23T09:01:25.636Z,5.88
2022-10-23T09:03:52.155Z,5.57
2022-10-23T09:06:40.462Z,5.53
2022-10-23T09:09:27.030Z,4.95
2022-10-23T09:11:59.318Z,5.18
2022-10-23T09:14:32.414Z,5.55
2022-10-23T09:17:08.517Z,5.93
2022-10-23T09:19:35.007Z,4.80
2022-10-23T09:22:01.723Z,4.97
2022-10-23T09:24:31.636Z,4.88
2022-10-23T09:26:58.324Z,4.53
2022-10-23T09:29:27.003Z,4.95
2022-10-23T09:31:57.185Z,4.60
2022-10-23T09:34:25.224Z,4.75
2022-10-23T09:39:32.194Z,4.90
2022-10-23T09:41:59.237Z,4.32
2022-10-23T09:44:26.888Z,4.70
2022-10-23T09:47:13.852Z,5.10
2022-10-23T09:49:41.165Z,4.85
2022-10-23T09:52:29.355Z,4.50
2022-10-23T09:55:00.270Z,4.65
2022-10-23T10:00:04.163Z,4.50
2022-10-23T10:02:38.172Z,4.20
2022-10-23T10:05:38.762Z,4.28
2022-10-23T10:08:34.436Z,4.57
2022-10-23T10:11:19.876Z,4.03
2022-10-23T10:13:55.754Z,4.13
2022-10-23T10:19:24.000Z,4.15
2022-10-23T10:21:54.996Z,4.60
2022-10-23T10:26:56.268Z,4.10
2022-10-23T10:29:34.747Z,4.03
2022-10-23T10:32:04.827Z,3.95
2022-10-23T10:34:37.104Z,3.90
2022-10-23T10:37:09.891Z,3.60
2022-10-23T10:39:42.515Z,3.30
2022-10-23T10:43:00.217Z,3.50
2022-10-23T10:45:30.875Z,3.45
2022-10-23T10:48:09.691Z,3.47
2022-10-23T10:51:02.380Z,3.10
2022-10-23T10:56:52.106Z,3.50
2022-10-23T10:59:21.408Z,3.35
2022-10-23T11:01:54.033Z,2.80
2022-10-23T11:07:18.774Z,2.85
2022-10-23T11:10:13.200Z,3.40
2022-10-23T11:12:40.160Z,3.17
2022-10-23T11:15:12.584Z,3.20
2022-10-23T11:17:40.450Z,3.28
2022-10-23T11:20:07.756Z,3.50
2022-10-23T11:22:42.669Z,3.13
2022-10-23T11:25:18.207Z,3.17
2022-10-23T11:27:47.736Z,3.55
2022-10-23T11:30:35.880Z,3.05
2022-10-23T11:33:02.365Z,3.03
2022-10-23T11:35:40.800Z,3.53
2022-10-23T11:38:13.185Z,3.13
2022-10-23T11:40:47.973Z,2.80
2022-10-23T11:43:25.475Z,3.10
2022-10-23T11:46:10.397Z,3.00
2022-10-23T11:48:40.654Z,2.95
2022-10-23T11:51:25.833Z,2.75
2022-10-23T11:53:52.507Z,3.05
2022-10-23T11:56:21.859Z,2.95
2022-10-23T11:58:56.357Z,2.50
2022-10-23T12:01:28.667Z,2.70
2022-10-23T12:04:04.266Z,2.67
2022-10-23T12:06:50.755Z,2.53
2022-10-23T12:09:44.738Z,2.53
2022-10-23T12:12:11.191Z,2.30
2022-10-23T12:14:37.486Z,2.80
2022-10-23T12:20:36.790Z,2.85
2022-10-23T12:23:09.857Z,2.30
2022-10-23T12:25:46.094Z,2.47
2022-10-23T12:28:27.351Z,2.40
2022-10-23T12:31:28.010Z,2.17
2022-10-23T12:34:05.097Z,2.50
2022-10-23T12:36:40.523Z,2.10
2022-10-23T12:39:25.309Z,2.40
2022-10-23T12:41:51.650Z,2.25
2022-10-23T12:44:17.994Z,2.92
2022-10-23T12:46:48.182Z,2.55
2022-10-23T12:49:18.786Z,2.15
2022-10-23T12:51:45.353Z,2.10
2022-10-23T12:54:15.812Z,2.00
2022-10-23T12:57:00.764Z,2.13
2022-10-23T12:59:29.160Z,2.30
2022-10-23T13:01:55.845Z,2.30
2022-10-23T13:04:22.413Z,2.13
2022-10-23T13:06:49.921Z,2.00
2022-10-23T13:09:24.098Z,2.65
2022-10-23T13:12:22.308Z,2.22
2022-10-23T13:15:07.883Z,2.33
2022-10-23T13:17:41.863Z,2.33
2022-10-23T13:20:09.717Z,2.33
2022-10-23T13:22:36.443Z,1.88
2022-10-23T13:25:03.093Z,2.30
2022-10-23T13:27:33.654Z,2.28
2022-10-23T13:30:00.216Z,2.15
2022-10-23T13:32:29.112Z,2.30
2022-10-23T13:35:10.402Z,2.17
2022-10-23T13:40:23.689Z,2.20
2022-10-23T13:45:21.855Z,2.35
2022-10-23T13:48:12.321Z,4.50
2022-10-23T13:50:38.648Z,2.30
2022-10-23T13:53:05.610Z,1.98
2022-10-23T13:55:33.498Z,2.55
2022-10-23T13:57:59.807Z,2.70
2022-10-23T14:00:26.105Z,2.15
2022-10-23T14:03:11.245Z,2.65
2022-10-23T14:05:37.797Z,2.40
2022-10-23T14:08:04.148Z,2.55
2022-10-23T14:10:30.495Z,2.42
2022-10-23T14:12:56.826Z,2.47
2022-10-23T14:15:23.305Z,3.65
2022-10-23T14:17:49.665Z,2.10
2022-10-23T14:20:34.622Z,2.10
2022-10-23T14:23:00.938Z,2.30
2022-10-23T14:25:45.699Z,2.85
2022-10-23T14:28:12.192Z,2.40
2022-10-23T14:30:38.737Z,2.50
2022-10-23T14:33:05.162Z,2.45
2022-10-23T14:35:31.593Z,2.20
2022-10-23T14:37:58.542Z,2.20
2022-10-23T14:45:32.035Z,2.30
2022-10-23T14:48:00.868Z,2.33
2022-10-23T14:50:27.432Z,2.75
2022-10-23T14:52:53.798Z,2.28
2022-10-23T14:55:20.109Z,2.50
2022-10-23T14:57:46.797Z,2.10
2022-10-23T15:00:13.408Z,2.47
2022-10-23T15:02:39.809Z,2.35
2022-10-23T15:05:06.588Z,2.85
2022-10-23T15:07:33.384Z,2.78
2022-10-23T15:09:59.767Z,2.20
2022-10-23T15:12:26.264Z,2.58
2022-10-23T15:14:52.673Z,2.75
2022-10-23T15:17:56.371Z,2.70
2022-10-23T15:20:22.883Z,2.30
2022-10-23T15:23:07.787Z,2.80
2022-10-23T15:25:34.156Z,2.38
2022-10-23T15:28:00.479Z,3.03
2022-10-23T15:30:27.140Z,2.72
2022-10-23T15:32:53.537Z,2.75
2022-10-23T15:35:19.850Z,2.65
2022-10-23T15:37:46.484Z,2.65
2022-10-23T15:40:12.954Z,2.67
2022-10-23T15:42:39.322Z,2.42
2022-10-23T15:45:06.331Z,2.55
2022-10-23T15:47:32.608Z,2.58
2022-10-23T15:49:58.890Z,2.50
2022-10-23T15:52:25.172Z,2.20
2022-10-23T15:54:51.784Z,2.70
2022-10-23T15:57:18.215Z,2.45
2022-10-23T15:59:44.503Z,2.40
2022-10-23T16:02:11.954Z,2.40
2022-10-23T16:04:38.360Z,2.88
2022-10-23T16:07:04.868Z,2.45
2022-10-23T16:09:31.312Z,2.28
2022-10-23T16:11:57.767Z,2.88
2022-10-23T16:14:24.167Z,2.60
2022-10-23T16:17:09.374Z,2.70
2022-10-23T16:19:35.722Z,9.05
2022-10-23T16:22:41.428Z,3.20
2022-10-23T16:25:10.575Z,3.23
2022-10-23T16:27:37.967Z,2.47
2022-10-23T16:30:06.182Z,2.38
2022-10-23T16:32:32.580Z,2.75
2022-10-23T16:34:58.923Z,3.15
2022-10-23T16:37:25.379Z,2.78
2022-10-23T16:39:58.458Z,2.88
2022-10-23T16:43:02.176Z,2.60
2022-10-23T16:46:05.768Z,2.67
2022-10-23T16:48:32.467Z,2.40
2022-10-23T16:50:59.169Z,2.85
2022-10-23T16:53:28.989Z,2.95
2022-10-23T17:01:31.966Z,3.00
2022-10-23T17:03:58.845Z,3.22
2022-10-23T17:06:29.540Z,2.90
2022-10-23T17:09:14.647Z,3.45
2022-10-23T17:11:41.326Z,2.88
2022-10-23T17:14:09.047Z,2.67
2022-10-23T17:16:40.284Z,3.13
2022-10-23T17:19:16.076Z,2.85
2022-10-23T17:21:53.714Z,3.00
2022-10-23T17:24:20.092Z,3.00
2022-10-23T17:29:30.707Z,3.00
2022-10-23T17:31:57.048Z,2.72
2022-10-23T17:34:23.790Z,2.90
2022-10-23T17:36:51.335Z,3.15
2022-10-23T17:39:18.946Z,3.08
2022-10-23T17:44:29.490Z,3.85
2022-10-23T17:46:55.956Z,3.15
2022-10-23T17:49:22.892Z,3.10
2022-10-23T17:52:10.274Z,2.90
2022-10-23T17:54:36.752Z,3.00
2022-10-23T17:57:03.148Z,3.03
2022-10-23T17:59:29.518Z,3.15
2022-10-23T18:04:42.570Z,3.20
2022-10-23T18:07:09.020Z,3.20
2022-10-23T18:09:35.448Z,3.17
2022-10-23T18:14:47.278Z,3.22
2022-10-23T18:17:13.585Z,3.42
2022-10-23T18:22:20.410Z,3.17
2022-10-23T18:30:11.448Z,2.90
2022-10-23T18:32:37.769Z,3.05
2022-10-23T18:40:50.902Z,2.80
2022-10-23T18:43:25.376Z,2.85
2022-10-23T18:46:04.374Z,3.67
2022-10-23T18:48:30.903Z,2.78
2022-10-23T18:50:57.295Z,3.10
2022-10-23T18:53:23.777Z,3.10
2022-10-23T18:56:08.530Z,2.90
2022-10-23T18:58:34.806Z,2.78
2022-10-23T19:03:41.427Z,3.20
2022-10-23T19:06:08.211Z,3.40
2022-10-23T19:08:35.777Z,3.70
2022-10-23T19:11:03.446Z,3.50
2022-10-23T19:13:29.877Z,3.80
2022-10-23T19:15:56.840Z,4.13
2022-10-23T19:18:23.137Z,3.60
2022-10-23T19:20:49.511Z,3.47
2022-10-23T19:23:36.269Z,3.45
2022-10-23T19:26:10.359Z,3.60
2022-10-23T19:34:07.080Z,3.30
2022-10-23T19:36:33.444Z,3.20
2022-10-23T19:39:00.183Z,3.42
2022-10-23T19:41:26.502Z,3.17
2022-10-23T19:43:53.036Z,3.20
2022-10-23T19:46:38.240Z,3.03
2022-10-23T19:49:05.040Z,3.20
2022-10-23T19:51:31.882Z,3.65
2022-10-23T19:53:58.770Z,2.63
2022-10-23T19:56:25.598Z,3.00
2022-10-23T19:58:52.193Z,2.80
2022-10-23T20:01:20.370Z,3.20
2022-10-23T20:03:48.700Z,2.50
2022-10-23T20:06:17.429Z,2.42
2022-10-23T20:08:43.724Z,2.70
2022-10-23T20:11:28.604Z,2.38
2022-10-23T20:14:13.773Z,2.50
2022-10-23T20:16:40.296Z,2.40
2022-10-23T20:19:08.563Z,2.25
2022-10-23T20:21:54.084Z,2.33
2022-10-23T20:24:21.151Z,2.40
2022-10-23T20:29:32.286Z,2.50
2022-10-23T20:31:58.900Z,2.75
2022-10-23T20:34:25.341Z,2.55
2022-10-23T20:36:51.681Z,2.17
2022-10-23T20:39:19.560Z,2.40
2022-10-23T20:41:45.995Z,2.72
2022-10-23T20:44:14.144Z,2.67
2022-10-23T20:46:40.812Z,2.30
2022-10-23T20:49:25.948Z,2.55
2022-10-23T20:52:11.084Z,2.80
2022-10-23T21:00:06.932Z,2.20
2022-10-23T21:02:33.310Z,3.00
2022-10-23T21:05:18.644Z,2.20
2022-10-23T21:07:45.041Z,2.20
2022-10-23T21:10:11.308Z,2.00
2022-10-23T21:12:37.667Z,2.00
2022-10-23T21:15:04.252Z,1.88
2022-10-23T21:17:35.069Z,1.67
2022-10-23T21:20:01.844Z,1.75
2022-10-23T21:22:28.283Z,1.50
2022-10-23T21:24:56.838Z,1.20
2022-10-23T21:27:23.413Z,1.50
2022-10-23T21:29:49.775Z,1.02
2022-10-23T21:32:16.085Z,1.25
2022-10-23T21:40:28.772Z,1.08
2022-10-23T21:42:55.068Z,1.25
2022-10-23T21:45:21.387Z,1.30
2022-10-23T21:48:06.044Z,1.10
2022-10-23T21:50:50.873Z,1.02
2022-10-23T21:53:17.196Z,1.42
2022-10-23T21:56:03.227Z,1.02
2022-10-23T21:58:29.536Z,1.20
2022-10-23T22:00:55.819Z,1.30
2022-10-23T22:03:40.641Z,1.35
2022-10-23T22:06:08.823Z,1.08
2022-10-23T22:09:12.475Z,1.10
2022-10-23T22:11:39.079Z,1.13
2022-10-23T22:14:05.467Z,1.30
2022-10-23T22:16:32.006Z,1.38
2022-10-23T22:19:16.989Z,1.45
2022-10-23T22:21:43.314Z,1.20
2022-10-23T22:24:10.253Z,1.17
2022-10-23T22:26:37.646Z,1.20
2022-10-23T22:29:07.930Z,1.33
2022-10-23T22:31:35.200Z,1.10
2022-10-23T22:37:27.619Z,1.38
2022-10-23T22:39:54.080Z,1.45
2022-10-23T22:42:20.509Z,1.65
2022-10-23T22:44:46.975Z,1.33
2022-10-23T22:47:13.572Z,1.58
2022-10-23T22:49:40.007Z,1.80
2022-10-23T22:52:24.983Z,1.73
2022-10-23T22:57:35.326Z,1.67
2022-10-23T23:00:01.647Z,1.40
2022-10-23T23:02:27.976Z,1.77
2022-10-23T23:04:54.611Z,1.45
2022-10-23T23:07:20.892Z,1.65
2022-10-23T23:10:05.613Z,1.75
2022-10-23T23:12:50.402Z,1.63
2022-10-23T23:15:16.794Z,1.50
2022-10-23T23:17:43.573Z,1.23
2022-10-23T23:23:14.024Z,1.52
2022-10-23T23:25:41.660Z,1.95
2022-10-23T23:28:08.370Z,2.05
2022-10-23T23:30:34.797Z,1.80
2022-10-23T23:33:01.222Z,1.85
2022-10-23T23:35:29.403Z,1.67
2022-10-23T23:40:39.491Z,1.88
2022-10-23T23:43:06.183Z,2.25
2022-10-23T23:45:32.733Z,1.83
2022-10-23T23:47:59.384Z,2.00
2022-10-23T23:50:27.781Z,2.28
2022-10-23T23:52:54.181Z,2.08
2022-10-23T23:55:20.471Z,2.47
2022-10-23T23:58:05.833Z,2.33
